Time;durP1;ratioP1;P1;durP2;ratioP2;P2;SDS_P1;SDS_P2;PMS_P1;PMS_P2;Temp;Humidity;BMP_temperature;BMP_pressure;BME280_temperature;BME280_humidity;BME280_pressure;Samples;Min_cycle;Max_cycle;Signal;HPM_P1;HPM_P2
2023/09/09 00:00:39;;;;;;;21.98;18.90;;;23.60;99.90;;;;;;4847299;29;20033;-88
2023/09/09 00:03:06;;;;;;;24.58;18.13;;;23.60;99.90;;;;;;4847380;29;20033;-88
2023/09/09 00:05:35;;;;;;;20.50;17.88;;;23.60;99.90;;;;;;4847576;29;20029;-88
2023/09/09 00:08:02;;;;;;;23.58;18.52;;;23.60;99.90;;;;;;4847397;29;20464;-88
2023/09/09 00:10:29;;;;;;;21.33;18.13;;;23.70;99.90;;;;;;4832137;29;20029;-88
2023/09/09 00:12:57;;;;;;;21.05;19.05;;;23.60;99.90;;;;;;4847280;29;20033;-88
2023/09/09 00:15:23;;;;;;;21.95;18.45;;;23.60;99.90;;;;;;4847198;29;20085;-88
2023/09/09 00:17:51;;;;;;;20.40;18.27;;;23.60;99.90;;;;;;4847304;29;20086;-88
2023/09/09 00:20:17;;;;;;;19.75;17.75;;;23.60;99.90;;;;;;4832147;29;20037;-88
2023/09/09 00:22:44;;;;;;;24.13;17.63;;;23.60;99.90;;;;;;4847131;29;20044;-88
2023/09/09 00:25:10;;;;;;;22.17;18.30;;;23.60;99.90;;;;;;4847245;29;20120;-88
2023/09/09 00:27:36;;;;;;;21.48;18.45;;;23.60;99.90;;;;;;4847107;29;20037;-88
2023/09/09 00:30:03;;;;;;;20.27;18.27;;;23.60;99.90;;;;;;4846913;29;20025;-87
2023/09/09 00:32:30;;;;;;;28.13;18.65;;;23.60;99.90;;;;;;4846899;29;20133;-88
2023/09/09 00:34:56;;;;;;;21.58;17.92;;;23.60;99.90;;;;;;4846809;29;20440;-87
2023/09/09 00:37:22;;;;;;;22.45;17.83;;;23.60;99.90;;;;;;4846755;29;20112;-87
2023/09/09 00:39:49;;;;;;;22.38;17.90;;;23.60;99.90;;;;;;4831385;29;20053;-88
2023/09/09 00:42:15;;;;;;;21.35;17.48;;;23.60;99.90;;;;;;4846183;29;20045;-88
2023/09/09 00:44:41;;;;;;;21.45;18.58;;;23.60;99.90;;;;;;4862243;29;20044;-88
2023/09/09 00:47:08;;;;;;;19.45;17.63;;;23.60;99.90;;;;;;4846794;29;20041;-88
2023/09/09 00:49:35;;;;;;;20.67;18.52;;;23.60;99.90;;;;;;4846556;29;20029;-88
2023/09/09 00:52:02;;;;;;;21.67;18.90;;;23.60;99.90;;;;;;4846418;29;20033;-88
2023/09/09 00:54:28;;;;;;;19.08;17.38;;;23.60;99.90;;;;;;4831301;29;20029;-88
2023/09/09 00:57:00;;;;;;;26.52;18.23;;;23.50;99.90;;;;;;4861762;29;20120;-88
2023/09/09 00:59:27;;;;;;;25.00;18.58;;;23.50;99.90;;;;;;4846383;29;20510;-88
2023/09/09 01:01:53;;;;;;;25.02;18.10;;;23.50;99.90;;;;;;4866849;29;20124;-89
2023/09/09 01:04:20;;;;;;;23.30;17.98;;;23.40;99.90;;;;;;4868105;29;20394;-89
2023/09/09 01:06:47;;;;;;;23.55;17.50;;;23.40;99.90;;;;;;4867900;29;20371;-89
2023/09/09 01:09:13;;;;;;;25.13;18.70;;;23.40;99.90;;;;;;4867861;29;20071;-88
2023/09/09 01:11:43;;;;;;;24.48;17.40;;;23.40;99.90;;;;;;4867807;29;20029;-88
2023/09/09 01:14:11;;;;;;;19.95;17.85;;;23.40;99.90;;;;;;4867735;29;20032;-88
2023/09/09 01:16:43;;;;;;;21.15;16.38;;;23.30;99.90;;;;;;4867765;29;20434;-88
2023/09/09 01:19:14;;;;;;;19.55;17.00;;;23.30;99.90;;;;;;4867618;29;20036;-89
2023/09/09 01:21:41;;;;;;;21.67;17.73;;;23.30;99.90;;;;;;4867530;29;20059;-88
2023/09/09 01:24:08;;;;;;;21.10;17.13;;;23.30;99.90;;;;;;4867634;29;20079;-88
2023/09/09 01:26:34;;;;;;;29.20;17.67;;;23.30;99.90;;;;;;4867081;29;20040;-89
2023/09/09 01:29:01;;;;;;;26.00;17.75;;;23.20;99.90;;;;;;4849018;29;20025;-89
2023/09/09 01:31:33;;;;;;;20.40;16.77;;;23.20;99.90;;;;;;4848989;29;20033;-88
2023/09/09 01:34:00;;;;;;;21.77;17.77;;;23.20;99.90;;;;;;4848940;29;20060;-89
2023/09/09 01:36:27;;;;;;;22.63;16.52;;;23.20;99.90;;;;;;4848912;29;20052;-88
2023/09/09 01:38:53;;;;;;;21.02;17.88;;;23.20;99.90;;;;;;4848809;29;20455;-88
2023/09/09 01:41:20;;;;;;;19.75;17.70;;;23.20;99.90;;;;;;4848751;29;20053;-88
2023/09/09 01:43:46;;;;;;;19.90;16.67;;;23.20;99.90;;;;;;4848977;29;20029;-88
2023/09/09 01:46:16;;;;;;;20.45;16.58;;;23.10;99.90;;;;;;4864469;29;20021;-88
2023/09/09 01:48:42;;;;;;;23.67;16.70;;;23.10;99.90;;;;;;4848845;29;20037;-88
2023/09/09 01:51:08;;;;;;;19.92;16.95;;;23.10;99.90;;;;;;4880663;29;20061;-88
2023/09/09 01:53:35;;;;;;;27.55;17.30;;;23.00;99.90;;;;;;4863252;29;20063;-88
2023/09/09 01:56:01;;;;;;;18.42;16.63;;;23.00;99.90;;;;;;4855109;29;20048;-88
2023/09/09 01:58:28;;;;;;;20.00;16.83;;;23.00;99.90;;;;;;4867233;29;20040;-88
2023/09/09 02:00:55;;;;;;;23.50;17.25;;;23.00;99.90;;;;;;4867037;29;20028;-88
2023/09/09 02:03:21;;;;;;;19.73;17.63;;;23.00;99.90;;;;;;4882673;29;20215;-88
2023/09/09 02:05:48;;;;;;;19.88;16.65;;;23.00;99.90;;;;;;4867144;29;20089;-89
2023/09/09 02:08:16;;;;;;;22.38;17.05;;;22.90;99.90;;;;;;4867328;29;20033;-88
2023/09/09 02:10:43;;;;;;;21.88;17.20;;;23.00;99.90;;;;;;4866990;29;20033;-88
2023/09/09 02:13:10;;;;;;;19.13;16.95;;;22.90;99.90;;;;;;4866900;29;20081;-88
2023/09/09 02:15:39;;;;;;;19.85;16.92;;;22.90;99.90;;;;;;4866829;29;20059;-88
2023/09/09 02:18:06;;;;;;;21.10;17.30;;;22.90;99.90;;;;;;4866951;29;20119;-88
2023/09/09 02:20:32;;;;;;;27.27;17.42;;;22.90;99.90;;;;;;4866896;29;20134;-88
2023/09/09 02:22:59;;;;;;;21.17;17.05;;;22.90;99.90;;;;;;4867004;29;20065;-88
2023/09/09 02:25:27;;;;;;;21.27;16.92;;;22.90;99.90;;;;;;4867155;29;20032;-88
2023/09/09 02:27:53;;;;;;;26.20;17.90;;;22.80;99.90;;;;;;4882361;29;20080;-88
2023/09/09 02:30:21;;;;;;;20.38;17.05;;;22.80;99.90;;;;;;4882425;29;20081;-89
2023/09/09 02:32:49;;;;;;;23.10;17.90;;;22.80;99.90;;;;;;4866664;29;20132;-88
2023/09/09 02:35:15;;;;;;;23.08;17.60;;;22.80;99.90;;;;;;4866741;29;20025;-88
2023/09/09 02:37:41;;;;;;;23.10;16.88;;;22.80;99.90;;;;;;4866746;29;20105;-88
2023/09/09 02:40:09;;;;;;;22.65;16.65;;;22.80;99.90;;;;;;4866563;29;20053;-88
2023/09/09 02:42:36;;;;;;;20.42;17.23;;;22.70;99.90;;;;;;4867028;29;20032;-88
2023/09/09 02:45:03;;;;;;;23.10;16.75;;;22.80;99.90;;;;;;4866740;29;20040;-89
2023/09/09 02:47:29;;;;;;;18.65;16.67;;;22.80;99.90;;;;;;4882017;29;20061;-88
2023/09/09 02:49:55;;;;;;;21.52;17.30;;;22.80;99.90;;;;;;4865111;29;20064;-88
2023/09/09 02:52:22;;;;;;;23.85;16.67;;;22.80;99.90;;;;;;4847897;29;20033;-88
2023/09/09 02:54:48;;;;;;;21.58;16.45;;;22.70;99.90;;;;;;4847984;29;20025;-88
2023/09/09 02:57:15;;;;;;;18.92;16.58;;;22.60;99.90;;;;;;4848252;29;20157;-88
2023/09/09 02:59:44;;;;;;;19.00;16.95;;;22.60;99.90;;;;;;4848160;29;20461;-89
2023/09/09 03:02:13;;;;;;;22.40;16.42;;;22.70;99.90;;;;;;4830263;29;20030;-90
2023/09/09 03:04:40;;;;;;;21.05;15.93;;;22.60;99.90;;;;;;4846251;29;20428;-87
2023/09/09 03:07:06;;;;;;;20.55;16.35;;;22.60;99.90;;;;;;4848213;29;20034;-86
2023/09/09 03:09:33;;;;;;;23.48;17.08;;;22.60;99.90;;;;;;4848243;29;20033;-86
2023/09/09 03:12:01;;;;;;;23.15;16.75;;;22.50;99.90;;;;;;4882445;29;20033;-87
2023/09/09 03:14:27;;;;;;;21.35;16.73;;;22.50;99.90;;;;;;4869707;29;20508;-86
2023/09/09 03:16:58;;;;;;;21.92;15.95;;;22.50;99.90;;;;;;4869687;29;20031;-86
2023/09/09 03:19:26;;;;;;;19.63;16.70;;;22.40;99.90;;;;;;4866942;29;20059;-87
2023/09/09 03:21:53;;;;;;;22.08;16.90;;;22.40;99.90;;;;;;4867388;29;20509;-85
2023/09/09 03:24:19;;;;;;;19.33;15.95;;;22.40;99.90;;;;;;4869400;29;20039;-85
2023/09/09 03:26:45;;;;;;;18.55;16.58;;;22.30;99.90;;;;;;4884881;29;20562;-83
2023/09/09 03:29:12;;;;;;;18.42;16.50;;;22.30;99.90;;;;;;4884708;29;20067;-89
2023/09/09 03:31:38;;;;;;;20.55;16.85;;;22.30;99.90;;;;;;4885032;29;20040;-87
2023/09/09 03:34:05;;;;;;;19.30;15.95;;;22.20;99.90;;;;;;4884884;29;20029;-86
2023/09/09 03:36:31;;;;;;;20.17;16.55;;;22.20;99.90;;;;;;4869453;29;20119;-87
2023/09/09 03:39:03;;;;;;;23.08;16.90;;;22.30;99.90;;;;;;4869574;29;20047;-87
2023/09/09 03:41:30;;;;;;;18.67;16.67;;;22.30;99.90;;;;;;4869321;29;20104;-88
2023/09/09 03:43:56;;;;;;;20.90;16.40;;;22.20;99.90;;;;;;4869303;29;20208;-89
2023/09/09 03:46:23;;;;;;;20.45;16.10;;;22.30;99.90;;;;;;4869381;29;20037;-89
2023/09/09 03:48:49;;;;;;;18.10;16.30;;;22.30;99.90;;;;;;4869340;29;20028;-90
2023/09/09 03:51:17;;;;;;;21.67;17.02;;;22.20;99.90;;;;;;4869262;29;20491;-90
2023/09/09 03:53:43;;;;;;;21.17;16.80;;;22.20;99.90;;;;;;4869086;29;20168;-90
2023/09/09 03:56:10;;;;;;;20.38;16.45;;;22.20;99.90;;;;;;4869191;29;20029;-90
2023/09/09 03:58:36;;;;;;;19.63;16.73;;;22.20;99.90;;;;;;4869248;29;20045;-89
2023/09/09 04:01:05;;;;;;;19.27;16.95;;;22.20;99.90;;;;;;4859955;29;20509;-90
2023/09/09 04:03:34;;;;;;;21.33;16.65;;;22.20;99.90;;;;;;4850497;29;20032;-90
2023/09/09 04:06:06;;;;;;;20.73;16.48;;;22.20;99.90;;;;;;4850524;29;20029;-90
2023/09/09 04:08:36;;;;;;;18.25;16.45;;;22.10;99.90;;;;;;4850517;29;20032;-90
2023/09/09 04:11:09;;;;;;;19.58;16.70;;;22.20;99.90;;;;;;4850402;29;20567;-90
2023/09/09 04:13:40;;;;;;;18.75;16.05;;;22.10;99.90;;;;;;4846591;29;20080;-89
2023/09/09 04:16:08;;;;;;;19.70;16.50;;;22.20;99.90;;;;;;4830916;29;20410;-89
2023/09/09 04:18:34;;;;;;;22.50;17.52;;;22.10;99.90;;;;;;4831477;29;20041;-89
2023/09/09 04:21:00;;;;;;;33.75;17.60;;;22.10;99.90;;;;;;4831294;29;20596;-90
2023/09/09 04:23:27;;;;;;;21.27;16.80;;;22.10;99.90;;;;;;4831151;29;20441;-89
2023/09/09 04:25:54;;;;;;;22.60;17.13;;;22.10;99.90;;;;;;4831163;29;20066;-90
2023/09/09 04:28:20;;;;;;;24.85;17.02;;;22.10;99.90;;;;;;4831181;29;20038;-90
2023/09/09 04:30:46;;;;;;;24.85;17.92;;;22.10;99.90;;;;;;4831216;29;20036;-90
2023/09/09 04:33:15;;;;;;;23.25;17.30;;;22.10;99.90;;;;;;4831417;29;20033;-90
2023/09/09 04:35:45;;;;;;;24.48;17.67;;;22.20;99.90;;;;;;4846040;29;20634;-90
2023/09/09 04:38:13;;;;;;;23.00;16.25;;;22.20;99.90;;;;;;4831074;29;20797;-90
2023/09/09 04:40:40;;;;;;;18.50;16.00;;;22.20;99.90;;;;;;4846063;29;20054;-90
2023/09/09 04:43:08;;;;;;;19.08;17.15;;;22.20;99.90;;;;;;4830828;29;20594;-90
2023/09/09 04:45:36;;;;;;;27.90;18.13;;;22.30;99.90;;;;;;4863932;29;20120;-90
2023/09/09 04:48:05;;;;;;;24.73;16.65;;;22.30;99.90;;;;;;4849851;29;20029;-90
2023/09/09 04:50:32;;;;;;;42.28;19.23;;;22.40;99.90;;;;;;4849914;29;20040;-90
2023/09/09 04:53:02;;;;;;;37.00;18.23;;;22.50;99.90;;;;;;4849697;29;20029;-90
2023/09/09 04:55:29;;;;;;;53.88;18.60;;;22.50;99.90;;;;;;4849710;29;20078;-90
2023/09/09 04:57:57;;;;;;;58.38;19.42;;;22.60;99.90;;;;;;4849723;29;20089;-90
2023/09/09 05:00:24;;;;;;;46.15;19.27;;;22.70;99.90;;;;;;4850654;29;20049;-89
2023/09/09 05:02:50;;;;;;;33.78;18.33;;;22.80;99.90;;;;;;4850026;29;20058;-91
2023/09/09 05:05:17;;;;;;;40.47;19.40;;;22.90;99.90;;;;;;4849612;29;20498;-89
2023/09/09 05:07:43;;;;;;;26.10;18.75;;;23.20;99.90;;;;;;4850346;29;20097;-91
2023/09/09 05:10:10;;;;;;;22.20;19.08;;;23.70;99.90;;;;;;4849573;29;20040;-89
2023/09/09 05:12:36;;;;;;;26.13;20.38;;;24.30;99.90;;;;;;4850094;29;20111;-87
2023/09/09 05:15:10;;;;;;;29.88;20.60;;;25.00;99.90;;;;;;4848819;29;20096;-87
2023/09/09 05:17:38;;;;;;;42.55;22.02;;;25.30;99.90;;;;;;4849521;29;20487;-89
2023/09/09 05:20:05;;;;;;;27.52;21.58;;;25.70;99.90;;;;;;4849147;29;20044;-88
2023/09/09 05:22:31;;;;;;;27.67;23.10;;;26.20;99.90;;;;;;4849072;29;20368;-88
2023/09/09 05:24:58;;;;;;;30.50;23.90;;;26.70;99.90;;;;;;4848945;29;20025;-89
2023/09/09 05:27:27;;;;;;;27.65;24.40;;;27.30;99.90;;;;;;4848744;29;20033;-89
2023/09/09 05:29:54;;;;;;;41.33;25.50;;;27.60;99.90;;;;;;4848537;29;20119;-88
2023/09/09 05:32:22;;;;;;;27.70;23.80;;;27.70;99.90;;;;;;4866355;29;20113;-87
2023/09/09 05:34:48;;;;;;;23.92;21.63;;;27.80;99.90;;;;;;4867374;29;20033;-87
2023/09/09 05:37:14;;;;;;;23.73;21.15;;;28.10;99.90;;;;;;4866963;29;20037;-88
2023/09/09 05:39:41;;;;;;;22.08;20.17;;;28.40;99.90;;;;;;4866601;29;20040;-86
2023/09/09 05:42:08;;;;;;;21.42;19.50;;;28.30;99.90;;;;;;4866044;29;20123;-87
2023/09/09 05:44:36;;;;;;;22.35;20.13;;;28.40;99.90;;;;;;4848552;29;20037;-88
2023/09/09 05:47:06;;;;;;;24.33;22.10;;;28.40;99.90;;;;;;4848153;29;20032;-85
2023/09/09 05:49:33;;;;;;;24.92;22.45;;;28.60;99.90;;;;;;4848166;29;20517;-86
2023/09/09 05:52:00;;;;;;;24.98;22.67;;;28.60;99.90;;;;;;4862969;29;20119;-85
2023/09/09 05:54:27;;;;;;;24.70;22.58;;;28.50;99.90;;;;;;4881906;29;20490;-85
2023/09/09 05:56:53;;;;;;;24.35;22.35;;;28.40;99.90;;;;;;4881725;29;20035;-85
2023/09/09 05:59:20;;;;;;;25.45;23.35;;;28.00;99.90;;;;;;4881893;29;20096;-85
2023/09/09 06:01:47;;;;;;;25.70;22.77;;;27.70;99.90;;;;;;4866520;29;20032;-86
2023/09/09 06:04:18;;;;;;;24.17;22.13;;;27.80;99.90;;;;;;4866699;29;20032;-87
2023/09/09 06:06:45;;;;;;;24.85;22.55;;;27.80;99.90;;;;;;4866806;29;20033;-87
2023/09/09 06:09:12;;;;;;;25.60;23.38;;;28.10;99.90;;;;;;4866757;29;20036;-87
2023/09/09 06:11:39;;;;;;;25.00;22.85;;;28.10;99.90;;;;;;4867089;29;20040;-87
2023/09/09 06:14:05;;;;;;;25.02;22.75;;;28.00;99.90;;;;;;4845197;29;20025;-87
2023/09/09 06:16:32;;;;;;;23.23;21.33;;;27.70;99.90;;;;;;4845200;29;20483;-88
